M I D A S
Marine Information and Data Acquisition System
Tripno 1614 of the Zeeleeuw from 2008-11-24 08:15:56 to 2008-11-24 12:17:43
Back to CruiseResearch ActivitiesStationsMapUnderway DataData graphs

EquipmentUnitsComment
TimeDGPSUTC
LatitudeDGPSDM.mWGS84
LongitudeDGPSDM.mWGS84
HeadingGyrodeg 
SOGDGPSknotsSpeed over ground
COGDGPSdegCourse over ground
DepthEcho soundermeters200 kHz
Missing or incorrect values are displayed as -999
Navigation data collected by the RV Zeeleeuw from 2008-11-24 08:15:56 to 2008-11-24 12:17:43
Time Latitude Longitude Heading SOG COG Depth
2008-11-24 08:18:00 51°13.622 2°56.047 105.5 0.4 298 -999
2008-11-24 08:20:00 51°13.648 2°55.941 113.5 1.3 292 -999
2008-11-24 08:22:00 51°13.711 2°55.787 112.5 3.79 296 -999
2008-11-24 08:24:00 51°13.721 2°55.727 47.2 0.2 351 -999
2008-11-24 08:26:00 51°13.767 2°55.684 331.8 6.7 332 -999
2008-11-24 08:28:00 51°14.03 2°55.484 334.5 9.5 335 -999
2008-11-24 08:30:00 51°14.305 2°55.18 311.8 11 313 -999
2008-11-24 08:32:00 51°14.425 2°54.721 244.6 10.3 241 -999
2008-11-24 08:34:00 51°14.253 2°54.237 242.3 10.59 243 -999
2008-11-24 08:36:00 51°14.08 2°53.765 241.6 10.09 244 -999
2008-11-24 08:38:00 51°13.94 2°53.261 247.5 10.4 249 -999
2008-11-24 08:40:00 51°13.807 2°52.748 247.1 10.4 249 -999
2008-11-24 08:42:00 51°13.642 2°52.261 240.5 10.4 241 -999
2008-11-24 08:44:00 51°13.472 2°51.775 240.8 10.69 241 -999
2008-11-24 08:46:00 51°13.302 2°51.281 241.5 10.5 241 -999
2008-11-24 08:48:00 51°13.132 2°50.799 240.6 10.4 244 -999
2008-11-24 08:50:00 51°12.967 2°50.314 242.1 10.5 240 -999
2008-11-24 08:52:00 51°12.798 2°49.826 241 10.5 243 -999
2008-11-24 08:54:00 51°12.635 2°49.345 241.5 10.4 240 -999
2008-11-24 08:56:00 51°12.47 2°48.861 242.4 10.3 239 -999
2008-11-24 08:58:00 51°12.305 2°48.379 241.8 10.09 237 -999
2008-11-24 09:00:00 51°12.143 2°47.902 241.8 10.5 243 -999
2008-11-24 09:02:00 51°12.004 2°47.403 256 10.19 260 -999
2008-11-24 09:04:00 51°11.949 2°46.874 258 10.09 259 -999
2008-11-24 09:06:00 51°11.89 2°46.341 256.8 10.3 260 -999
2008-11-24 09:08:00 51°11.832 2°45.818 259.6 10.19 261 -999
2008-11-24 09:10:00 51°11.799 2°45.28 262.3 9.8 265 -999
2008-11-24 09:12:00 51°11.777 2°44.763 262.8 9.9 266 -999
2008-11-24 09:14:00 51°11.751 2°44.229 262.3 9.9 265 -999
2008-11-24 09:16:00 51°11.721 2°43.706 262.3 9.8 263 -999
2008-11-24 09:18:00 51°11.681 2°43.175 256.5 10.09 261 -999
2008-11-24 09:20:00 51°11.604 2°42.654 251.5 10.09 255 -999
2008-11-24 09:22:00 51°11.484 2°42.151 240.9 10.19 239 -999
2008-11-24 09:24:00 51°11.28 2°41.709 235.4 10.4 238 -999
2008-11-24 09:26:00 51°11.088 2°41.255 237.4 10.09 235 -999
2008-11-24 09:28:00 51°10.899 2°40.811 237.5 10.3 233 -999
2008-11-24 09:30:00 51°10.713 2°40.359 237 10.09 233 -999
2008-11-24 09:32:00 51°10.52 2°39.909 236.8 10.5 228 -999
2008-11-24 09:34:00 51°10.346 2°39.445 237.9 10.09 247 -999
2008-11-24 09:36:00 51°10.169 2°38.981 238.8 10.19 237 -999
2008-11-24 09:38:00 51°10.002 2°38.507 242.9 10.4 240 -999
2008-11-24 09:40:00 51°9.836 2°38.03 240 10.3 240 -999
2008-11-24 09:42:00 51°9.663 2°37.557 240 10.4 242 -999
2008-11-24 09:44:00 51°9.49 2°37.097 240 10.09 239 -999
2008-11-24 09:46:00 51°9.418 2°36.88 259.3 0.69 247 -999
2008-11-24 09:48:00 51°9.396 2°36.886 225.4 1.69 196 -999
2008-11-24 09:50:00 51°9.33 2°36.788 248 2.6 239 -999
2008-11-24 09:52:00 51°9.303 2°36.682 259.1 1.89 247 -999
2008-11-24 09:54:00 51°9.264 2°36.585 243.6 2.5 233 -999
2008-11-24 09:56:00 51°9.218 2°36.495 243.1 2 229 -999
2008-11-24 09:58:00 51°9.168 2°36.41 242.3 2.2 227 -999
2008-11-24 10:00:00 51°9.122 2°36.316 246 2.2 236 -999
2008-11-24 10:02:00 51°9.093 2°36.205 257.1 2.2 257 -999
2008-11-24 10:04:00 51°9.067 2°36.103 253.9 2.1 240 -999
2008-11-24 10:06:00 51°9.045 2°35.994 253.4 2.29 254 -999
2008-11-24 10:08:00 51°9.017 2°35.882 254.1 2.2 250 -999
2008-11-24 10:10:00 51°8.99 2°35.771 253 2.2 249 -999
2008-11-24 10:12:00 51°8.961 2°35.66 253 2.2 248 -999
2008-11-24 10:14:00 51°8.931 2°35.55 253.5 2.2 251 -999
2008-11-24 10:16:00 51°8.9 2°35.449 250.5 2.1 244 -999
2008-11-24 10:18:00 51°8.87 2°35.343 253.5 2.2 247 -999
2008-11-24 10:20:00 51°8.842 2°35.234 255 2.29 251 -999
2008-11-24 10:22:00 51°8.827 2°35.138 265.6 0.9 250 -999
2008-11-24 10:24:00 51°8.825 2°35.124 289.5 0.4 106 -999
2008-11-24 10:26:00 51°8.813 2°35.164 287.8 1.1 117 -999
2008-11-24 10:28:00 51°8.855 2°35.156 348.8 4.4 11 -999
2008-11-24 10:30:00 51°8.996 2°35.46 50.7 9.4 55 -999
2008-11-24 10:32:00 51°9.209 2°35.961 55 13 61 -999
2008-11-24 10:34:00 51°9.422 2°36.549 57.1 13 65 -999
2008-11-24 10:36:00 51°9.639 2°37.15 57.7 12.8 62 -999
2008-11-24 10:38:00 51°9.855 2°37.746 57.5 12.8 60 -999
2008-11-24 10:40:00 51°10.067 2°38.328 56.7 13 61 -999
2008-11-24 10:42:00 51°10.281 2°38.907 58.2 12.69 60 -999
2008-11-24 10:44:00 51°10.488 2°39.491 57.6 12.59 57 -999
2008-11-24 10:46:00 51°10.699 2°40.072 57.7 12.69 60 -999
2008-11-24 10:48:00 51°10.913 2°40.658 56.7 12.69 62 -999
2008-11-24 10:50:00 51°11.183 2°41.167 41.2 12.59 46 -999
2008-11-24 10:52:00 51°11.474 2°41.649 44.3 12.69 49 -999
2008-11-24 10:54:00 51°11.739 2°42.153 47.7 12.3 51 -999
2008-11-24 10:56:00 51°12 2°42.662 49.3 12.3 51 -999
2008-11-24 10:58:00 51°12.262 2°43.174 48.2 12.4 51 -999
2008-11-24 11:00:00 51°12.523 2°43.684 48.5 12.69 50 -999
2008-11-24 11:02:00 51°12.779 2°44.192 48.5 12.09 50 -999
2008-11-24 11:04:00 51°13.038 2°44.693 48.1 12.09 49 -999
2008-11-24 11:06:00 51°13.302 2°45.191 46.6 12.09 45 -999
2008-11-24 11:08:00 51°13.582 2°45.659 44.2 12.3 44 -999
2008-11-24 11:10:00 51°13.861 2°46.114 43.1 12 46 -999
2008-11-24 11:12:00 51°14.135 2°46.58 48.5 12 51 -999
2008-11-24 11:14:00 51°14.379 2°47.079 51.5 11.8 50 -999
2008-11-24 11:16:00 51°14.612 2°47.558 51.2 11.8 49 -999
2008-11-24 11:18:00 51°14.845 2°48.037 49.7 11.8 50 -999
2008-11-24 11:20:00 51°15.094 2°48.526 49.2 11.8 52 -999
2008-11-24 11:22:00 51°15.341 2°49.021 50.5 12 53 -999
2008-11-24 11:24:00 51°15.585 2°49.518 50.5 12 52 -999
2008-11-24 11:26:00 51°15.837 2°50.019 50.6 12.19 48 -999
2008-11-24 11:28:00 51°16.09 2°50.521 48.8 12.19 53 -999
2008-11-24 11:30:00 51°16.361 2°51.004 45.2 12.19 47 -999
2008-11-24 11:32:00 51°16.633 2°51.449 46 11.19 45 -999
2008-11-24 11:34:00 51°16.908 2°51.889 45.6 12 45 -999
2008-11-24 11:36:00 51°17.178 2°52.32 47.1 11.4 43 -999
2008-11-24 11:38:00 51°17.456 2°52.752 45.1 11.9 42 -999
2008-11-24 11:40:00 51°17.733 2°53.188 46.2 11.8 42 -999
2008-11-24 11:42:00 51°18.008 2°53.615 46.7 10.4 43 -999
2008-11-24 11:44:00 51°17.983 2°53.766 209.3 4.5 223 -999
2008-11-24 11:46:00 51°17.84 2°53.506 224.3 7 226 -999
2008-11-24 11:48:00 51°17.67 2°53.198 226.9 8.4 230 -999
2008-11-24 11:50:00 51°17.468 2°52.823 230.1 9.5 224 -999
2008-11-24 11:52:00 51°17.21 2°52.493 204.1 10.69 199 -999
2008-11-24 11:54:00 51°16.872 2°52.563 154.9 10.5 154 -999
2008-11-24 11:56:00 51°16.556 2°52.832 153 10.4 161 -999
2008-11-24 11:58:00 51°16.228 2°53.076 157.4 11.4 156 -999